Terminal Aerodrome Forecast
Issued by NWS

Home | Current Version | Previous Version | Text Only | Print | Product List | Glossary On
Versions: 1 2 3 4 5 6 7 8 9 10 11 12 13 14 15 16 17 18 19 20 21 22 23 24 25
481
FTUS41 KOKX 252348
TAFHPN
TAF
KHPN 252348Z 2600/2624 04006KT P6SM OVC015
      TEMPO 2600/2602 OVC009
     FM260600 05006KT P6SM OVC025
     FM260900 06007KT P6SM SCT025 OVC035
     FM261400 09007KT 6SM -RA SCT015 OVC025
     FM262100 09008KT 5SM -RA BR SCT005 OVC010
      AMD NOT SKED=

USA.gov is the U.S. government's official web portal to all federal, state and local government web resources and services.